Time;durP1;ratioP1;P1;durP2;ratioP2;P2;SDS_P1;SDS_P2;PMS_P1;PMS_P2;Temp;Humidity;BMP_temperature;BMP_pressure;BME280_temperature;BME280_humidity;BME280_pressure;Samples;Min_cycle;Max_cycle;Signal;HPM_P1;HPM_P2
2021/09/01 00:01:33;;;;;;;13.65;11.10;;;16.10;97.90;;;;;;5071469;28;20033;-53
2021/09/01 00:03:59;;;;;;;12.93;11.02;;;16.10;97.80;;;;;;5071326;28;20028;-56
2021/09/01 00:06:24;;;;;;;14.23;10.63;;;16.10;97.80;;;;;;5091424;28;20415;-54
2021/09/01 00:08:51;;;;;;;12.85;10.32;;;16.10;97.80;;;;;;5091561;28;20039;-53
2021/09/01 00:11:18;;;;;;;11.95;9.80;;;16.00;97.70;;;;;;5091760;28;20700;-50
2021/09/01 00:13:44;;;;;;;10.95;9.45;;;16.10;97.70;;;;;;5073347;28;20065;-51
2021/09/01 00:16:25;;;;;;;12.57;9.93;;;16.00;97.70;;;;;;5091985;28;20118;-56
2021/09/01 00:18:55;;;;;;;11.48;9.30;;;15.90;97.80;;;;;;5091550;28;20553;-53
2021/09/01 00:21:22;;;;;;;11.52;9.43;;;15.90;97.90;;;;;;5072350;28;20063;-57
2021/09/01 00:23:48;;;;;;;12.20;10.50;;;15.90;97.90;;;;;;5071353;28;20028;-53
2021/09/01 00:26:13;;;;;;;12.88;10.48;;;15.90;97.90;;;;;;5071930;28;20531;-55
2021/09/01 00:28:39;;;;;;;12.45;9.60;;;15.80;97.90;;;;;;5072151;28;20079;-56
2021/09/01 00:31:05;;;;;;;12.27;10.07;;;15.80;97.80;;;;;;5070298;28;20364;-57
2021/09/01 00:33:30;;;;;;;11.68;10.48;;;15.80;97.90;;;;;;5078823;28;20067;-57
2021/09/01 00:35:56;;;;;;;17.70;10.23;;;15.80;98.00;;;;;;5091814;28;20039;-57
2021/09/01 00:38:21;;;;;;;13.68;10.38;;;15.80;98.00;;;;;;5091804;28;20051;-52
2021/09/01 00:40:47;;;;;;;12.38;10.07;;;15.70;97.90;;;;;;5091937;28;20016;-56
2021/09/01 00:43:12;;;;;;;10.02;8.82;;;15.70;97.90;;;;;;5091004;28;20051;-58
2021/09/01 00:45:44;;;;;;;12.75;11.40;;;15.60;97.70;;;;;;5091804;28;20036;-58
2021/09/01 00:48:10;;;;;;;18.13;11.40;;;15.60;97.80;;;;;;5091360;28;20040;-58
2021/09/01 00:50:36;;;;;;;12.05;10.02;;;15.60;97.70;;;;;;5091944;28;20047;-52
2021/09/01 00:53:01;;;;;;;13.20;10.52;;;15.40;97.70;;;;;;5091274;28;20049;-53
2021/09/01 00:55:27;;;;;;;14.15;11.40;;;15.40;97.80;;;;;;5095170;28;20040;-57
2021/09/01 00:57:53;;;;;;;15.60;12.15;;;15.40;97.90;;;;;;5095230;28;20028;-57
2021/09/01 01:00:34;;;;;;;16.60;11.45;;;15.40;98.00;;;;;;5095131;28;20084;-56
2021/09/01 01:03:00;;;;;;;11.73;10.45;;;15.40;98.10;;;;;;5095300;28;20036;-51
2021/09/01 01:05:26;;;;;;;13.55;10.65;;;15.40;98.10;;;;;;5096885;28;20031;-54
2021/09/01 01:07:52;;;;;;;13.18;10.95;;;15.40;98.10;;;;;;5096357;28;20036;-54
2021/09/01 01:10:17;;;;;;;12.73;10.07;;;15.40;98.10;;;;;;5096738;28;20036;-55
2021/09/01 01:12:43;;;;;;;16.55;11.30;;;15.40;98.10;;;;;;5096917;28;20144;-58
2021/09/01 01:15:09;;;;;;;14.85;9.80;;;15.40;98.10;;;;;;5096035;28;20047;-51
2021/09/01 01:17:34;;;;;;;13.38;10.95;;;15.40;98.10;;;;;;5096413;28;20036;-54
2021/09/01 01:20:00;;;;;;;12.77;10.10;;;15.30;98.10;;;;;;5088947;28;20032;-54
2021/09/01 01:22:26;;;;;;;12.90;9.75;;;15.30;98.30;;;;;;5074290;28;20136;-55
2021/09/01 01:24:51;;;;;;;11.38;9.10;;;15.30;98.20;;;;;;5074925;28;20041;-54
2021/09/01 01:27:30;;;;;;;11.75;9.25;;;15.30;98.30;;;;;;5074234;28;20028;-55
2021/09/01 01:30:03;;;;;;;13.00;9.65;;;15.30;98.30;;;;;;5074132;28;20495;-52
2021/09/01 01:32:28;;;;;;;11.68;9.93;;;15.20;98.40;;;;;;5074062;28;20025;-51
2021/09/01 01:34:54;;;;;;;13.75;10.30;;;15.20;98.50;;;;;;5073197;28;20392;-51
2021/09/01 01:37:19;;;;;;;10.93;9.80;;;15.20;98.50;;;;;;5074397;28;20507;-57
2021/09/01 01:39:45;;;;;;;12.15;9.95;;;15.20;98.50;;;;;;5074287;28;20082;-55
2021/09/01 01:42:11;;;;;;;10.43;9.18;;;15.20;98.40;;;;;;5073777;28;20068;-56
2021/09/01 01:44:36;;;;;;;12.55;9.88;;;15.20;98.30;;;;;;5074089;28;20063;-56
2021/09/01 01:47:03;;;;;;;11.48;9.73;;;15.00;98.30;;;;;;5074242;28;20032;-56
2021/09/01 01:49:29;;;;;;;12.15;9.98;;;15.00;98.20;;;;;;5094221;28;20039;-56
2021/09/01 01:51:55;;;;;;;11.70;8.68;;;15.00;98.30;;;;;;5094154;28;20028;-53
2021/09/01 01:54:20;;;;;;;12.40;10.60;;;14.90;98.40;;;;;;5094303;28;20028;-53
2021/09/01 01:56:46;;;;;;;13.88;10.65;;;14.80;98.80;;;;;;5094010;28;20446;-59
2021/09/01 01:59:11;;;;;;;11.93;10.20;;;14.80;98.80;;;;;;5094020;28;20640;-59
2021/09/01 02:01:37;;;;;;;11.63;10.30;;;14.80;98.60;;;;;;5093937;28;20055;-57
2021/09/01 02:04:03;;;;;;;11.10;9.90;;;14.80;98.80;;;;;;5075891;28;20123;-51
2021/09/01 02:06:29;;;;;;;17.45;10.30;;;14.70;98.80;;;;;;5093424;28;20586;-53
2021/09/01 02:08:54;;;;;;;12.25;9.95;;;14.70;98.90;;;;;;5093695;28;20118;-57
2021/09/01 02:11:20;;;;;;;13.00;10.50;;;14.50;99.20;;;;;;5093636;28;20059;-56
2021/09/01 02:13:45;;;;;;;12.68;9.82;;;14.50;99.30;;;;;;5093514;28;20027;-57
2021/09/01 02:16:11;;;;;;;12.15;9.88;;;14.60;99.30;;;;;;5075637;28;20483;-55
2021/09/01 02:18:37;;;;;;;12.13;10.10;;;14.50;99.60;;;;;;5094223;28;20115;-58
2021/09/01 02:21:02;;;;;;;11.55;10.00;;;14.60;99.30;;;;;;5077835;28;20032;-59
2021/09/01 02:23:28;;;;;;;13.48;10.98;;;14.60;99.30;;;;;;5073399;28;20032;-56
2021/09/01 02:25:53;;;;;;;11.20;9.80;;;14.60;99.50;;;;;;5073801;28;20037;-55
2021/09/01 02:28:19;;;;;;;12.55;10.48;;;14.60;99.70;;;;;;5072916;28;20093;-54
2021/09/01 02:30:45;;;;;;;11.73;9.88;;;14.40;99.90;;;;;;5073418;28;20115;-58
2021/09/01 02:33:10;;;;;;;12.27;10.00;;;14.40;99.90;;;;;;5075588;28;20052;-55
2021/09/01 02:35:36;;;;;;;12.85;9.90;;;14.50;99.90;;;;;;5088715;28;20040;-53
2021/09/01 02:38:04;;;;;;;12.52;10.77;;;14.60;99.90;;;;;;5093314;28;20036;-56
2021/09/01 02:40:29;;;;;;;14.27;10.95;;;14.50;99.90;;;;;;5093665;28;20064;-55
2021/09/01 02:42:55;;;;;;;15.52;10.43;;;14.50;99.90;;;;;;5092517;28;20565;-58
2021/09/01 02:45:21;;;;;;;14.48;10.80;;;14.30;99.90;;;;;;5093651;28;20058;-53
2021/09/01 02:47:46;;;;;;;15.82;10.63;;;14.30;99.90;;;;;;5092996;28;20056;-54
2021/09/01 02:50:13;;;;;;;13.98;11.10;;;14.40;99.90;;;;;;5093379;28;20046;-53
2021/09/01 02:52:40;;;;;;;13.32;10.85;;;14.50;99.90;;;;;;5092861;28;20387;-53
2021/09/01 02:55:05;;;;;;;16.27;11.00;;;14.50;99.90;;;;;;5091674;28;20396;-55
2021/09/01 02:57:31;;;;;;;17.30;11.48;;;14.40;99.90;;;;;;5092214;28;20162;-55
2021/09/01 02:59:57;;;;;;;17.00;11.63;;;14.40;99.90;;;;;;5093069;28;20550;-52
2021/09/01 03:02:22;;;;;;;15.50;11.55;;;14.20;99.90;;;;;;5092435;28;20487;-53
2021/09/01 03:04:48;;;;;;;17.67;12.23;;;14.10;99.90;;;;;;5092936;28;20157;-57
2021/09/01 03:07:13;;;;;;;14.88;11.68;;;14.00;99.90;;;;;;5092950;28;20064;-54
2021/09/01 03:09:39;;;;;;;16.33;12.05;;;14.10;99.90;;;;;;5092425;28;20032;-54
2021/09/01 03:12:05;;;;;;;14.43;11.77;;;14.20;99.90;;;;;;5092482;28;20043;-50
2021/09/01 03:14:30;;;;;;;17.40;13.07;;;14.20;99.90;;;;;;5092632;28;20024;-53
2021/09/01 03:16:56;;;;;;;17.15;12.82;;;14.10;99.90;;;;;;5092896;28;20586;-57
2021/09/01 03:19:22;;;;;;;18.48;13.27;;;14.10;99.90;;;;;;5071882;28;20105;-52
2021/09/01 03:21:49;;;;;;;17.23;12.57;;;14.20;99.90;;;;;;5072232;28;20033;-56
2021/09/01 03:24:15;;;;;;;16.48;13.07;;;14.20;99.90;;;;;;5072468;28;20115;-54
2021/09/01 03:26:40;;;;;;;17.33;13.15;;;14.30;99.90;;;;;;5072343;28;20064;-56
2021/09/01 03:29:06;;;;;;;19.98;13.52;;;14.20;99.90;;;;;;5072085;28;20035;-52
2021/09/01 03:31:31;;;;;;;21.08;13.98;;;14.20;99.90;;;;;;5072309;28;20064;-59
2021/09/01 03:33:57;;;;;;;21.70;14.95;;;14.30;99.90;;;;;;5084022;28;20161;-54
2021/09/01 03:36:23;;;;;;;19.40;14.98;;;14.20;99.90;;;;;;5092201;28;20082;-56
2021/09/01 03:38:49;;;;;;;22.30;15.52;;;14.30;99.90;;;;;;5092437;28;20032;-52
2021/09/01 03:41:15;;;;;;;24.80;15.00;;;14.20;99.90;;;;;;5073966;28;20430;-55
2021/09/01 03:43:40;;;;;;;25.92;15.35;;;14.10;99.90;;;;;;5092357;28;20115;-55
2021/09/01 03:46:06;;;;;;;24.90;17.65;;;14.10;99.90;;;;;;5092485;28;20717;-50
2021/09/01 03:48:32;;;;;;;25.27;17.50;;;14.10;99.90;;;;;;5092165;28;20062;-52
2021/09/01 03:50:57;;;;;;;20.42;16.75;;;14.00;99.90;;;;;;5092253;28;20052;-54
2021/09/01 03:53:23;;;;;;;24.92;17.55;;;14.00;99.90;;;;;;5092116;28;20051;-58
2021/09/01 03:55:48;;;;;;;28.75;18.52;;;14.10;99.90;;;;;;5091960;28;20036;-55
2021/09/01 03:58:14;;;;;;;23.20;18.23;;;14.00;99.90;;;;;;5091916;28;20024;-52
2021/09/01 04:00:40;;;;;;;28.27;19.25;;;14.20;99.90;;;;;;5091791;28;20058;-55
2021/09/01 04:03:06;;;;;;;25.67;18.70;;;14.10;99.90;;;;;;5091738;28;20110;-54
2021/09/01 04:05:32;;;;;;;28.08;20.15;;;14.20;99.90;;;;;;5092121;28;20047;-54
2021/09/01 04:07:58;;;;;;;27.33;20.08;;;14.20;99.90;;;;;;5091865;28;20044;-53
2021/09/01 04:10:23;;;;;;;29.27;20.50;;;14.10;99.90;;;;;;5091980;28;20541;-57
2021/09/01 04:12:49;;;;;;;30.65;20.77;;;14.00;99.90;;;;;;5091788;28;20075;-57
2021/09/01 04:15:15;;;;;;;29.30;20.30;;;14.00;99.90;;;;;;5091805;28;20044;-53
2021/09/01 04:17:40;;;;;;;30.15;21.42;;;14.10;99.90;;;;;;5092124;28;20032;-52
2021/09/01 04:20:07;;;;;;;32.80;22.70;;;14.10;99.90;;;;;;5083341;28;20107;-55
2021/09/01 04:22:32;;;;;;;34.58;22.52;;;14.00;99.90;;;;;;5071431;28;20028;-52
2021/09/01 04:24:58;;;;;;;31.60;23.35;;;14.00;99.90;;;;;;5071571;28;20463;-55
2021/09/01 04:27:23;;;;;;;35.15;23.55;;;14.20;99.90;;;;;;5071321;28;20033;-58
2021/09/01 04:29:49;;;;;;;29.80;23.35;;;14.10;99.90;;;;;;5074450;28;20511;-53
2021/09/01 04:32:15;;;;;;;36.65;24.25;;;14.10;99.90;;;;;;5075241;28;20041;-54
2021/09/01 04:34:41;;;;;;;34.63;24.58;;;14.10;99.90;;;;;;5092820;28;20028;-54
2021/09/01 04:37:06;;;;;;;29.55;23.88;;;14.30;99.90;;;;;;5095523;28;20127;-55
2021/09/01 04:39:32;;;;;;;36.13;24.75;;;14.30;99.90;;;;;;5095683;28;20051;-57
2021/09/01 04:41:57;;;;;;;36.20;23.77;;;14.20;99.90;;;;;;5095332;28;20032;-56
2021/09/01 04:44:23;;;;;;;31.15;23.10;;;14.30;99.90;;;;;;5095677;28;20036;-54
2021/09/01 04:46:49;;;;;;;35.00;24.45;;;14.40;99.90;;;;;;5095777;28;20110;-54
2021/09/01 04:49:14;;;;;;;35.40;26.65;;;14.30;99.90;;;;;;5095303;28;20483;-60
2021/09/01 04:51:40;;;;;;;38.95;27.88;;;14.40;99.90;;;;;;5095133;28;20046;-53
2021/09/01 04:54:05;;;;;;;42.10;28.33;;;14.30;99.90;;;;;;5095180;28;20051;-53
2021/09/01 04:56:31;;;;;;;45.70;29.45;;;14.40;99.90;;;;;;5095437;28;20020;-53
2021/09/01 04:58:56;;;;;;;45.22;31.67;;;14.40;99.90;;;;;;5095194;28;20036;-55
2021/09/01 05:01:22;;;;;;;41.22;29.05;;;14.20;99.90;;;;;;5094912;28;20036;-56
2021/09/01 05:03:48;;;;;;;45.20;31.27;;;14.30;99.90;;;;;;5095542;28;20054;-52
2021/09/01 05:06:13;;;;;;;49.65;31.55;;;14.40;99.90;;;;;;5077765;28;20093;-54
2021/09/01 05:08:39;;;;;;;45.83;31.98;;;14.50;99.90;;;;;;5095420;28;20051;-57
2021/09/01 05:11:04;;;;;;;48.67;31.13;;;14.40;99.90;;;;;;5096364;28;20031;-55
2021/09/01 05:13:30;;;;;;;45.15;32.15;;;14.50;99.90;;;;;;5095565;28;20040;-55
2021/09/01 05:15:55;;;;;;;48.45;32.85;;;14.60;99.90;;;;;;5095091;28;20032;-54
2021/09/01 05:18:21;;;;;;;46.17;32.17;;;14.50;99.90;;;;;;5095294;28;20040;-54
2021/09/01 05:20:47;;;;;;;48.92;32.85;;;14.50;99.90;;;;;;5080259;28;20033;-55
2021/09/01 05:23:16;;;;;;;46.83;30.63;;;14.50;99.90;;;;;;5074036;28;20029;-54
2021/09/01 05:25:47;;;;;;;49.60;32.80;;;14.70;99.90;;;;;;5074343;28;20036;-54
2021/09/01 05:28:16;;;;;;;49.20;32.25;;;14.80;99.90;;;;;;5074202;28;20471;-52
2021/09/01 05:30:45;;;;;;;53.47;33.35;;;14.80;99.90;;;;;;5074482;28;20545;-56
2021/09/01 05:33:12;;;;;;;48.85;31.60;;;14.80;99.90;;;;;;5079324;28;20028;-51
2021/09/01 05:35:38;;;;;;;51.72;30.70;;;14.80;99.90;;;;;;5094145;28;20098;-55
2021/09/01 05:38:05;;;;;;;44.25;30.48;;;14.90;99.90;;;;;;5094863;28;20062;-53
2021/09/01 05:40:30;;;;;;;47.42;31.65;;;14.90;99.90;;;;;;5093288;28;20038;-55
2021/09/01 05:42:58;;;;;;;53.75;33.42;;;14.90;99.90;;;;;;5093799;28;20130;-58
2021/09/01 05:45:25;;;;;;;48.88;30.08;;;14.90;99.90;;;;;;5094408;28;20149;-56
2021/09/01 05:47:51;;;;;;;52.85;30.30;;;14.80;99.90;;;;;;5093997;28;20387;-56
2021/09/01 05:50:17;;;;;;;46.75;29.45;;;14.90;99.90;;;;;;5094105;28;20032;-53
2021/09/01 05:52:43;;;;;;;42.70;29.60;;;15.00;99.90;;;;;;5094099;28;20024;-53
2021/09/01 05:55:11;;;;;;;48.17;29.92;;;14.90;99.90;;;;;;5094189;28;20399;-52
2021/09/01 05:57:38;;;;;;;47.33;28.60;;;14.90;99.90;;;;;;5094318;28;20505;-55
2021/09/01 06:00:10;;;;;;;40.58;28.02;;;15.10;99.90;;;;;;5094160;28;20024;-55
2021/09/01 06:02:43;;;;;;;56.10;28.42;;;15.00;99.90;;;;;;5093606;28;20360;-55
2021/09/01 06:05:09;;;;;;;45.55;28.60;;;15.10;99.90;;;;;;5094295;28;20043;-58
2021/09/01 06:07:43;;;;;;;41.33;27.20;;;15.20;99.90;;;;;;5093947;28;20127;-54
2021/09/01 06:10:11;;;;;;;45.03;27.27;;;15.10;99.90;;;;;;5093908;28;20060;-52
2021/09/01 06:12:41;;;;;;;34.95;24.33;;;15.10;99.90;;;;;;5094209;28;20063;-55
2021/09/01 06:15:07;;;;;;;36.60;25.23;;;15.00;99.90;;;;;;5093940;28;20103;-57
2021/09/01 06:17:33;;;;;;;42.25;24.80;;;14.90;99.90;;;;;;5093567;28;20024;-54
2021/09/01 06:19:58;;;;;;;36.80;24.15;;;14.90;99.90;;;;;;5068160;28;20024;-57
2021/09/01 06:22:24;;;;;;;37.80;24.02;;;14.90;99.90;;;;;;5055351;28;20094;-52
2021/09/01 06:24:49;;;;;;;41.38;23.77;;;14.80;99.90;;;;;;5073731;28;20036;-50
2021/09/01 06:27:15;;;;;;;35.58;22.00;;;14.90;99.90;;;;;;5055751;28;20036;-55
2021/09/01 06:29:41;;;;;;;31.48;20.77;;;15.20;99.90;;;;;;5073112;28;20029;-55
2021/09/01 06:32:07;;;;;;;32.17;21.85;;;15.00;99.90;;;;;;5038691;28;20043;-57
2021/09/01 06:34:32;;;;;;;34.03;22.38;;;15.20;99.90;;;;;;5072189;28;20027;-53
2021/09/01 06:37:00;;;;;;;31.13;20.92;;;15.20;99.90;;;;;;5097066;28;20063;-53
2021/09/01 06:39:26;;;;;;;32.92;20.70;;;15.20;99.90;;;;;;5096198;28;20036;-55
2021/09/01 06:41:52;;;;;;;30.65;19.77;;;15.30;99.90;;;;;;5097329;28;20034;-56
2021/09/01 06:44:18;;;;;;;32.17;21.67;;;15.50;99.90;;;;;;5093728;28;20102;-55
2021/09/01 06:46:43;;;;;;;31.13;19.52;;;15.60;99.90;;;;;;5075924;28;20495;-56
2021/09/01 06:49:09;;;;;;;29.10;20.02;;;15.60;99.90;;;;;;5092821;28;20055;-57
2021/09/01 06:51:34;;;;;;;29.02;19.83;;;15.50;99.90;;;;;;5074688;28;20039;-57
2021/09/01 06:54:00;;;;;;;30.48;19.55;;;15.40;99.90;;;;;;5093617;28;20036;-56
2021/09/01 06:56:26;;;;;;;35.17;21.40;;;15.50;99.90;;;;;;5093359;28;20020;-52
2021/09/01 06:58:51;;;;;;;27.45;19.42;;;15.30;99.90;;;;;;5093121;28;20148;-58
2021/09/01 07:01:17;;;;;;;31.17;19.35;;;15.30;99.90;;;;;;5083993;28;20085;-59
2021/09/01 07:03:43;;;;;;;38.38;19.25;;;15.30;99.90;;;;;;5073949;28;20391;-61
2021/09/01 07:06:08;;;;;;;26.20;18.63;;;15.30;99.90;;;;;;5092967;28;20031;-61
2021/09/01 07:08:34;;;;;;;28.00;19.77;;;15.40;99.90;;;;;;5092386;28;20036;-61
2021/09/01 07:11:00;;;;;;;29.52;18.25;;;15.30;99.90;;;;;;5074238;28;20032;-58
2021/09/01 07:13:25;;;;;;;33.00;20.60;;;15.40;99.90;;;;;;5092457;28;20028;-59
2021/09/01 07:15:51;;;;;;;30.08;18.67;;;15.30;99.90;;;;;;5092497;28;20020;-59
2021/09/01 07:18:16;;;;;;;29.08;18.95;;;15.40;99.90;;;;;;5092771;28;20038;-59
2021/09/01 07:20:43;;;;;;;29.92;19.83;;;15.40;99.90;;;;;;5092697;28;20380;-59
2021/09/01 07:23:09;;;;;;;31.73;21.00;;;15.60;99.90;;;;;;5091858;28;20020;-58
2021/09/01 07:25:36;;;;;;;31.17;20.85;;;15.70;99.90;;;;;;5092452;28;20039;-57
2021/09/01 07:28:03;;;;;;;35.55;22.00;;;15.70;99.90;;;;;;5092387;28;20028;-57
2021/09/01 07:30:29;;;;;;;34.45;21.98;;;15.70;99.90;;;;;;5057838;28;20028;-61
2021/09/01 07:32:54;;;;;;;42.22;23.52;;;15.60;99.90;;;;;;5092231;28;20024;-59
2021/09/01 07:35:22;;;;;;;33.35;22.73;;;15.70;99.90;;;;;;5062268;28;20372;-59
2021/09/01 07:37:49;;;;;;;31.38;21.73;;;15.60;99.90;;;;;;5096101;28;20107;-59
2021/09/01 07:40:17;;;;;;;39.95;25.58;;;15.70;99.90;;;;;;5096423;28;20024;-60
2021/09/01 07:42:45;;;;;;;37.80;24.70;;;15.60;99.90;;;;;;5092607;28;20515;-60
2021/09/01 07:45:17;;;;;;;40.20;25.95;;;15.70;99.90;;;;;;5093521;28;20047;-60
2021/09/01 07:47:51;;;;;;;33.90;23.67;;;15.80;99.90;;;;;;5093065;28;20115;-59
2021/09/01 07:50:18;;;;;;;41.83;26.27;;;15.80;99.90;;;;;;5092574;28;20029;-56
2021/09/01 07:52:44;;;;;;;33.80;24.88;;;15.90;99.90;;;;;;5092834;28;20028;-55
2021/09/01 07:55:10;;;;;;;35.05;24.45;;;15.80;99.90;;;;;;5074737;28;20043;-55
2021/09/01 07:57:35;;;;;;;35.05;24.30;;;15.90;99.90;;;;;;5092222;28;20074;-59
2021/09/01 08:00:01;;;;;;;39.40;26.25;;;16.00;99.90;;;;;;5092406;28;20551;-58
2021/09/01 08:02:27;;;;;;;37.42;23.95;;;16.30;99.90;;;;;;5091781;28;20047;-58
2021/09/01 08:04:52;;;;;;;37.80;24.75;;;16.30;99.90;;;;;;5091448;28;20112;-58
2021/09/01 08:07:18;;;;;;;36.30;25.55;;;16.20;99.90;;;;;;5092155;28;20055;-60
2021/09/01 08:09:44;;;;;;;37.70;26.73;;;16.30;99.90;;;;;;5091714;28;20032;-59
2021/09/01 08:12:10;;;;;;;38.22;25.17;;;16.30;99.90;;;;;;5091957;28;20074;-58
2021/09/01 08:14:36;;;;;;;32.97;23.27;;;16.40;99.90;;;;;;5091630;28;20032;-58
2021/09/01 08:17:03;;;;;;;33.55;23.40;;;16.40;99.90;;;;;;5073887;28;20028;-59
2021/09/01 08:19:29;;;;;;;32.60;22.33;;;16.40;99.90;;;;;;5054251;28;20043;-59
2021/09/01 08:21:55;;;;;;;32.20;21.88;;;16.20;99.90;;;;;;5053660;28;20483;-59
2021/09/01 08:24:21;;;;;;;32.75;22.77;;;16.40;99.90;;;;;;5037645;28;20039;-58
2021/09/01 08:26:47;;;;;;;34.40;22.73;;;16.40;99.90;;;;;;5037561;28;20039;-59
2021/09/01 08:29:13;;;;;;;31.88;21.65;;;16.20;99.90;;;;;;5053879;28;20566;-59
2021/09/01 08:31:39;;;;;;;35.28;23.58;;;16.30;99.90;;;;;;5054286;28;20126;-61
2021/09/01 08:34:04;;;;;;;39.47;22.90;;;16.30;99.90;;;;;;5056106;28;20063;-59
2021/09/01 08:36:30;;;;;;;28.50;20.23;;;16.20;99.90;;;;;;5091549;28;20028;-59
2021/09/01 08:38:56;;;;;;;29.02;20.10;;;16.10;99.90;;;;;;5073394;28;20495;-58
2021/09/01 08:41:23;;;;;;;29.98;20.75;;;16.20;99.90;;;;;;5091699;28;20047;-59
2021/09/01 08:43:59;;;;;;;29.73;20.40;;;16.40;99.90;;;;;;5073448;28;20099;-57
2021/09/01 08:46:32;;;;;;;29.75;20.45;;;16.50;99.90;;;;;;5050921;28;20028;-60
2021/09/01 08:49:00;;;;;;;31.80;21.45;;;16.60;99.90;;;;;;5091213;28;20081;-56
2021/09/01 08:51:26;;;;;;;29.90;20.90;;;16.60;99.90;;;;;;5091786;28;20112;-59
2021/09/01 08:53:55;;;;;;;30.73;20.98;;;16.50;99.90;;;;;;5091477;28;20114;-60
2021/09/01 08:56:22;;;;;;;30.20;20.85;;;16.60;99.90;;;;;;5089135;28;20032;-60
2021/09/01 08:58:47;;;;;;;31.08;21.80;;;16.60;99.90;;;;;;5083665;28;20028;-60
2021/09/01 09:01:45;;;;;;;32.95;22.42;;;16.50;99.90;;;;;;5082263;28;20024;-61
2021/09/01 09:04:19;;;;;;;31.52;22.23;;;16.60;99.90;;;;;;5087578;28;20054;-61
2021/09/01 09:06:56;;;;;;;34.50;23.60;;;16.60;99.90;;;;;;5089338;28;20028;-60
2021/09/01 09:09:27;;;;;;;32.47;23.13;;;16.70;99.80;;;;;;5089957;28;20051;-60
2021/09/01 09:11:55;;;;;;;33.72;23.50;;;16.70;99.80;;;;;;5091687;28;20494;-61
2021/09/01 09:14:37;;;;;;;30.83;23.70;;;16.80;99.70;;;;;;5091393;28;20040;-60
2021/09/01 09:17:13;;;;;;;31.25;24.50;;;16.90;99.60;;;;;;5095005;28;20035;-60
2021/09/01 09:19:46;;;;;;;32.35;23.70;;;16.70;99.50;;;;;;5095333;28;20078;-60
2021/09/01 09:22:13;;;;;;;29.23;24.42;;;17.10;98.80;;;;;;5076359;28;20107;-61
2021/09/01 09:24:39;;;;;;;30.15;22.55;;;17.20;98.40;;;;;;5094911;28;20040;-60
2021/09/01 09:27:08;;;;;;;27.50;18.75;;;17.20;98.70;;;;;;5095095;28;20396;-62
2021/09/01 09:29:34;;;;;;;23.65;19.10;;;17.60;99.50;;;;;;5094622;28;20789;-59
2021/09/01 09:32:06;;;;;;;27.70;20.65;;;18.00;97.90;;;;;;5095098;28;20032;-60
2021/09/01 09:34:39;;;;;;;26.60;19.55;;;18.10;97.50;;;;;;5094526;28;20032;-58
2021/09/01 09:37:14;;;;;;;31.58;19.85;;;18.20;97.50;;;;;;5094640;28;20119;-63
2021/09/01 09:39:46;;;;;;;25.77;18.55;;;18.20;97.60;;;;;;5094495;28;20537;-59
2021/09/01 09:42:13;;;;;;;23.55;17.35;;;18.20;97.40;;;;;;5094541;28;20047;-58
2021/09/01 09:44:39;;;;;;;25.58;18.40;;;18.20;97.20;;;;;;5094975;28;20028;-56
2021/09/01 09:47:05;;;;;;;24.02;16.90;;;18.20;96.90;;;;;;5094739;28;20107;-54
2021/09/01 09:49:34;;;;;;;25.38;16.70;;;18.20;97.30;;;;;;5093114;28;20119;-58
2021/09/01 09:52:11;;;;;;;22.85;16.45;;;18.50;96.70;;;;;;5094401;28;20046;-56
2021/09/01 09:54:37;;;;;;;22.30;16.30;;;18.50;96.60;;;;;;5095294;28;20090;-63
2021/09/01 09:57:09;;;;;;;23.60;15.25;;;18.60;96.40;;;;;;5076917;28;20438;-59
2021/09/01 09:59:35;;;;;;;19.15;15.32;;;18.70;96.20;;;;;;5095409;28;20040;-58
2021/09/01 10:02:01;;;;;;;20.00;15.43;;;18.60;96.30;;;;;;5095134;28;20031;-59
2021/09/01 10:04:28;;;;;;;22.60;15.18;;;18.80;96.20;;;;;;5095020;28;20032;-59
2021/09/01 10:06:54;;;;;;;22.52;15.30;;;19.00;95.80;;;;;;5094877;28;20025;-58
2021/09/01 10:09:20;;;;;;;19.42;14.30;;;18.90;96.00;;;;;;5094071;28;20036;-55
2021/09/01 10:11:47;;;;;;;21.58;14.30;;;18.80;96.50;;;;;;5077577;28;20398;-58
2021/09/01 10:14:24;;;;;;;16.58;13.10;;;18.90;96.60;;;;;;5095074;28;20091;-57
2021/09/01 10:17:03;;;;;;;19.48;13.50;;;19.10;96.70;;;;;;5095060;28;20032;-58
2021/09/01 10:19:30;;;;;;;19.63;14.02;;;19.40;96.40;;;;;;5093827;28;20024;-56
2021/09/01 10:22:05;;;;;;;17.85;13.07;;;19.20;95.80;;;;;;5094089;28;20025;-59
2021/09/01 10:24:33;;;;;;;19.17;13.32;;;19.10;95.70;;;;;;5094240;28;20038;-59
2021/09/01 10:26:59;;;;;;;17.45;12.65;;;19.10;95.40;;;;;;5093212;28;20103;-60
2021/09/01 10:30:02;;;;;;;18.38;12.70;;;18.90;95.60;;;;;;5094458;28;20117;-56
2021/09/01 10:32:31;;;;;;;17.98;12.55;;;18.90;95.90;;;;;;5080201;28;20044;-59
2021/09/01 10:35:12;;;;;;;15.38;12.20;;;19.10;95.50;;;;;;5088221;28;20111;-58
2021/09/01 10:37:51;;;;;;;15.48;11.15;;;18.90;95.20;;;;;;5093411;28;20019;-57
2021/09/01 10:40:23;;;;;;;15.10;11.63;;;19.00;95.30;;;;;;5088567;28;20034;-58
2021/09/01 10:42:52;;;;;;;16.00;11.30;;;19.10;95.20;;;;;;5093347;28;20067;-58
2021/09/01 10:45:41;;;;;;;18.73;10.68;;;19.40;94.90;;;;;;5093276;28;20050;-58
2021/09/01 10:48:09;;;;;;;17.05;10.32;;;19.40;94.60;;;;;;5067242;28;20039;-55
2021/09/01 10:50:40;;;;;;;16.30;11.35;;;19.60;94.60;;;;;;5091860;28;20066;-58
2021/09/01 10:53:12;;;;;;;15.63;10.52;;;19.80;94.70;;;;;;5093193;28;20031;-60
2021/09/01 10:55:58;;;;;;;14.88;10.05;;;19.80;94.50;;;;;;5093387;28;20028;-59
2021/09/01 10:58:35;;;;;;;16.42;11.15;;;19.60;94.50;;;;;;5073766;28;20040;-59
2021/09/01 11:01:09;;;;;;;15.13;10.45;;;19.70;94.30;;;;;;5093651;28;20044;-58
2021/09/01 11:03:39;;;;;;;14.88;9.98;;;20.00;94.10;;;;;;5073053;28;20028;-56
2021/09/01 11:06:16;;;;;;;15.07;10.32;;;20.00;93.90;;;;;;5088787;28;20580;-56
2021/09/01 11:09:01;;;;;;;15.13;10.48;;;20.00;93.50;;;;;;5084520;28;20098;-59
2021/09/01 11:11:36;;;;;;;17.15;10.45;;;20.10;94.20;;;;;;5064743;28;20400;-57
2021/09/01 11:14:02;;;;;;;14.85;9.98;;;20.30;93.70;;;;;;5073922;28;20029;-56
2021/09/01 11:16:28;;;;;;;14.68;11.23;;;20.50;92.80;;;;;;5059883;28;20031;-60
2021/09/01 11:19:10;;;;;;;16.17;11.52;;;20.60;93.00;;;;;;5092957;28;20043;-59
2021/09/01 11:21:43;;;;;;;15.85;12.05;;;20.40;92.80;;;;;;5072543;28;20078;-59
2021/09/01 11:24:10;;;;;;;15.00;10.30;;;20.30;92.70;;;;;;5083450;28;20036;-58
2021/09/01 11:26:36;;;;;;;17.83;12.18;;;20.30;92.80;;;;;;5093700;28;20114;-59
2021/09/01 11:29:05;;;;;;;22.38;11.40;;;20.30;93.00;;;;;;5074031;28;20764;-57
2021/09/01 11:31:43;;;;;;;16.55;12.70;;;20.40;93.00;;;;;;5074322;28;20040;-58
2021/09/01 11:34:11;;;;;;;21.55;13.25;;;20.30;92.90;;;;;;5092361;28;20028;-58
2021/09/01 11:36:36;;;;;;;19.63;14.07;;;20.30;93.00;;;;;;5092999;28;20032;-59
2021/09/01 11:39:02;;;;;;;18.85;14.45;;;20.20;93.20;;;;;;5092352;28;20020;-59
2021/09/01 11:41:29;;;;;;;22.08;12.82;;;20.30;93.10;;;;;;5093945;28;20028;-57
2021/09/01 11:44:05;;;;;;;17.98;13.15;;;20.40;92.70;;;;;;5086579;28;20164;-57
2021/09/01 11:46:36;;;;;;;19.38;14.55;;;20.30;92.50;;;;;;5073330;28;20387;-57
2021/09/01 11:49:10;;;;;;;17.50;13.85;;;20.30;92.70;;;;;;5089599;28;20115;-53
2021/09/01 11:51:38;;;;;;;16.60;12.50;;;20.20;92.60;;;;;;5093185;28;20024;-57
2021/09/01 11:54:06;;;;;;;18.33;13.82;;;20.30;92.40;;;;;;5092708;28;20040;-55
2021/09/01 11:56:32;;;;;;;19.13;12.98;;;20.20;92.90;;;;;;5090785;28;20497;-56
2021/09/01 11:59:07;;;;;;;14.05;12.30;;;20.50;92.80;;;;;;5089378;28;20117;-53
2021/09/01 12:01:37;;;;;;;13.57;11.00;;;20.60;92.00;;;;;;5092114;28;20498;-54
2021/09/01 12:04:03;;;;;;;16.92;11.48;;;20.60;91.60;;;;;;5092035;28;20556;-57
2021/09/01 12:06:43;;;;;;;15.10;11.05;;;20.60;91.50;;;;;;5092463;28;20040;-56
2021/09/01 12:09:13;;;;;;;14.38;11.48;;;20.50;91.50;;;;;;5093675;28;20028;-58
2021/09/01 12:11:51;;;;;;;16.67;11.75;;;20.60;91.60;;;;;;5075834;28;20027;-53
2021/09/01 12:14:19;;;;;;;13.05;10.75;;;20.80;91.40;;;;;;5089785;28;20074;-57
2021/09/01 12:16:45;;;;;;;11.48;9.35;;;21.00;91.60;;;;;;5071719;28;20115;-56
2021/09/01 12:19:12;;;;;;;15.20;10.27;;;21.00;91.60;;;;;;5071608;28;20123;-57
2021/09/01 12:22:00;;;;;;;14.60;10.32;;;21.20;90.80;;;;;;5085429;28;20040;-54
2021/09/01 12:24:34;;;;;;;13.50;10.13;;;21.20;89.90;;;;;;5092686;28;20032;-58
2021/09/01 12:27:10;;;;;;;12.82;9.65;;;20.90;90.30;;;;;;5074108;28;20036;-56
2021/09/01 12:29:45;;;;;;;13.98;9.32;;;20.70;90.40;;;;;;5080144;28;20037;-57
2021/09/01 12:32:18;;;;;;;10.82;8.98;;;20.80;90.70;;;;;;5072966;28;20067;-55